Date,TemperatureHighF,TemperatureAvgF,TemperatureLowF,DewpointHighF,DewpointAvgF,DewpointLowF,HumidityHigh,HumidityAvg,HumidityLow,PressureMaxIn,PressureMinIn,WindSpeedMaxMPH,WindSpeedAvgMPH,GustSpeedMaxMPH,PrecipitationSumIn
2014-1-1,60.1,50.3,42.4,56.6,48.1,40.0,95,92,87,30.34,30.05,0,0,0,0.12
2014-1-2,57.9,50.5,35.2,56.6,45.1,26.4,96,82,61,30.32,29.91,0,0,0,0.21
2014-1-3,43.5,32.9,26.4,26.4,20.4,18.3,75,61,39,30.44,30.31,0,0,0,0.00
2014-1-4,60.1,42.5,25.5,49.1,35.6,19.3,85,77,66,30.31,30.06,0,0,0,0.00
2014-1-5,67.6,55.8,44.6,60.1,50.6,39.5,88,83,75,30.06,29.87,0,0,0,0.00
2014-1-6,44.4,31.9,22.8,39.6,17.2,4.7,83,57,36,30.58,30.04,0,0,0,0.00
2014-1-7,27.7,21.6,16.2,8.0,6.1,4.1,63,51,42,30.63,30.51,0,0,0,0.00
2014-1-8,48.4,30.5,16.3,22.5,15.6,6.7,70,56,33,30.54,30.36,0,0,0,0.00
2014-1-9,59.2,41.8,27.1,46.1,32.7,18.7,87,70,59,30.39,30.23,0,0,0,0.00
2014-1-10,66.7,54.9,47.8,64.9,51.8,43.8,94,89,85,30.23,29.92,0,0,0,0.00
2014-1-11,75.4,62.7,42.1,66.7,48.3,32.4,96,63,35,30.11,29.84,0,0,0,0.63
2014-1-12,67.1,46.7,33.3,44.5,35.0,28.8,88,66,36,30.24,30.10,0,0,0,0.00
2014-1-13,55.6,46.9,40.3,53.0,42.8,33.9,92,86,78,30.13,30.04,0,0,0,0.00
2014-1-14,53.8,46.3,39.0,39.8,37.3,33.4,80,71,59,30.11,30.07,0,0,0,0.67
2014-1-15,41.5,39.9,39.0,37.3,35.4,33.4,87,84,80,30.07,30.05,0,0,0,0.00
2014-1-17,38.8,35.5,32.4,16.2,15.7,15.0,49,44,39,30.24,30.24,0,0,0,0.00
2014-1-18,59.5,40.3,23.7,31.3,23.0,14.7,75,52,31,30.33,30.14,0,0,0,0.00
2014-1-19,63.7,59.5,55.8,38.2,36.5,34.6,45,42,39,30.14,30.14,0,0,0,0.06
2014-1-20,70.7,64.9,62.4,48.3,45.0,43.0,52,49,44,30.01,29.99,0,0,0,0.00
2014-1-21,59.0,50.1,33.4,54.7,30.1,19.2,92,48,29,30.20,29.93,0,0,0,0.00
2014-1-22,54.1,36.5,26.4,25.1,20.3,16.5,71,54,30,30.26,30.16,0,0,0,0.00
2014-1-23,55.8,40.5,28.8,29.2,24.9,19.2,81,57,34,30.55,30.21,0,0,0,0.00
2014-1-24,38.3,32.9,30.9,23.1,15.9,10.9,68,50,40,30.61,30.32,0,0,0,0.00
2014-1-25,63.1,44.1,32.7,42.4,33.6,23.1,84,68,43,30.32,30.01,0,0,0,0.00
2014-1-26,63.0,46.3,34.9,46.0,37.2,30.2,86,72,52,30.08,29.91,0,0,0,0.00
2014-1-27,63.7,53.3,45.1,58.7,46.4,24.2,93,78,45,30.10,29.89,0,0,0,0.11
2014-1-28,45.0,34.1,26.4,25.6,19.8,11.1,87,59,38,30.25,30.07,0,0,0,0.00
2014-1-29,33.4,29.1,22.8,11.7,10.0,8.6,54,45,38,30.39,30.32,0,0,0,0.00
2014-3-6,53.4,49.5,45.1,51.1,47.8,43.3,95,94,92,29.98,29.89,0,0,0,0.20
2014-3-7,66.9,49.7,41.5,51.0,43.5,39.1,93,80,55,30.09,29.98,0,0,0,0.00
2014-3-8,71.8,53.9,38.5,57.7,47.7,35.8,95,81,60,30.20,30.07,0,0,0,0.00
2014-3-9,80.1,63.1,49.8,61.0,54.1,47.0,94,74,50,30.25,30.12,0,0,0,0.00
2014-3-10,85.8,63.0,48.0,61.5,53.3,45.3,94,74,43,30.17,29.97,0,0,0,0.00
2014-3-11,67.1,60.4,55.0,64.3,57.7,51.2,95,91,83,29.98,29.72,0,0,0,0.16
2014-3-12,67.8,61.4,48.7,61.3,54.9,37.1,96,80,56,30.13,29.71,0,0,0,0.00
2014-3-13,48.7,46.2,42.1,37.1,35.8,33.7,72,67,64,30.18,30.13,0,0,0,0.00
2014-3-14,71.6,50.1,34.2,53.1,43.6,30.4,90,79,52,30.30,30.13,114,37,114,7.45
2014-3-15,67.5,59.1,50.7,61.7,55.9,45.1,95,89,80,30.14,29.89,0,0,0,0.23
2014-3-16,70.0,65.5,60.4,68.5,64.0,59.0,96,95,91,29.89,29.61,0,0,0,1.12
2014-3-17,60.4,53.5,46.6,59.0,51.0,42.7,96,91,77,29.82,29.63,0,0,0,0.06
2014-3-18,43.9,43.9,43.9,40.6,40.6,40.6,88,88,88,29.95,29.94,0,0,0,0.00
2014-3-19,57.9,56.4,54.3,51.9,50.9,49.2,83,82,80,30.11,30.09,0,0,0,0.00
2014-3-20,80.8,66.6,50.0,56.7,51.5,44.4,91,61,34,30.15,30.03,0,0,0,0.00
2014-3-21,82.6,63.9,42.4,52.0,48.1,38.8,87,62,34,30.09,30.02,0,0,0,0.00
2014-3-22,84.4,65.2,53.2,64.9,56.1,47.5,92,74,47,30.08,29.98,0,0,0,0.00
2014-3-23,73.9,65.3,53.4,66.0,59.7,46.4,94,83,66,30.15,29.98,0,0,0,0.10
2014-3-24,71.2,59.4,50.9,48.7,45.7,42.2,82,62,44,30.15,29.96,0,0,0,0.00
2014-3-25,66.4,54.5,44.4,45.7,33.8,23.9,81,49,25,30.28,30.00,0,0,0,0.00
2014-3-26,58.6,46.6,30.7,31.9,27.6,21.0,79,49,32,30.40,30.22,0,0,0,0.00
2014-3-27,68.2,60.9,45.0,60.8,55.7,36.5,93,83,69,30.21,30.03,0,0,0,0.15
2014-3-28,64.6,63.4,61.0,63.1,61.8,58.9,95,94,93,30.07,29.91,0,0,0,2.08
2014-3-29,73.6,62.5,55.2,60.6,54.1,43.4,96,77,48,30.19,29.89,114,114,114,0.76
2014-3-30,70.2,50.5,45.1,45.3,42.2,39.6,81,74,40,30.20,30.15,114,10,114,7.45
2014-3-31,81.1,57.8,37.9,52.4,44.3,34.4,93,65,32,30.19,30.10,0,0,0,0.00
2014-4-1,82.6,61.9,44.8,62.2,52.4,40.6,93,74,42,30.18,30.09,0,0,0,0.00
2014-4-2,82.9,69.1,55.2,69.2,62.8,50.7,93,82,62,30.13,30.06,0,0,0,0.00
2014-4-3,84.7,72.1,64.6,69.2,65.2,62.0,95,80,59,30.08,29.96,0,0,0,0.00
2014-4-4,81.3,71.0,64.2,71.2,65.8,59.6,94,84,63,30.04,29.89,0,0,0,0.10
2014-4-5,68.5,62.0,56.8,63.4,55.3,51.6,93,79,63,30.07,29.98,0,0,0,0.55
2014-4-6,71.4,61.7,55.2,70.2,60.0,53.5,96,94,92,29.99,29.74,0,0,0,0.33
2014-4-7,80.2,72.0,60.6,71.1,65.2,52.0,96,81,51,29.88,29.65,114,0,114,7.86
2014-4-8,67.8,57.1,46.8,51.3,49.1,43.1,93,76,52,30.00,29.83,0,0,0,0.30
2014-4-9,50.4,49.5,48.7,48.3,47.5,46.8,93,93,93,30.03,30.00,0,0,0,0.00
2014-4-10,79.9,65.2,45.3,54.0,49.2,40.9,85,60,35,30.27,30.20,114,114,114,0.05
2014-4-11,80.4,68.8,47.1,64.8,59.8,43.7,94,74,55,30.25,30.14,114,4,114,7.45
2014-4-12,85.5,72.8,57.6,62.6,56.4,51.6,81,58,42,30.13,30.08,0,0,0,0.00
2014-4-13,86.9,68.9,54.9,69.6,61.3,50.6,94,78,55,30.12,29.96,0,0,0,0.00
2014-4-14,78.1,67.9,64.6,69.7,64.3,60.3,95,89,71,29.96,29.73,0,0,0,0.30
2014-4-15,64.2,55.5,47.1,62.8,45.6,36.4,95,72,43,30.16,29.78,0,0,0,2.14
2014-4-16,73.8,57.2,35.4,47.9,39.6,30.4,83,54,37,30.25,30.11,0,0,0,0.00
2014-4-17,59.9,59.9,59.9,57.9,57.8,57.6,93,93,93,30.18,30.17,0,0,0,0.25
2014-4-18,62.2,59.9,58.8,59.0,57.4,56.3,95,92,85,30.17,30.04,0,0,0,0.47
2014-4-19,82.0,68.1,52.3,57.2,53.3,49.1,93,62,39,30.14,30.02,0,0,0,0.02
2014-4-20,78.6,63.4,50.7,60.0,54.0,47.2,92,73,52,30.20,30.10,0,0,0,0.00
2014-4-21,82.2,63.5,50.2,65.7,56.3,47.0,94,79,56,30.17,30.01,0,0,0,0.00
2014-4-22,85.8,68.0,54.3,66.7,60.2,51.6,95,78,48,30.01,29.86,0,0,0,0.00
2014-4-23,85.6,69.7,57.4,69.2,62.2,54.8,95,79,55,29.98,29.88,0,0,0,0.00
2014-4-24,87.6,67.8,59.2,70.8,62.2,56.0,93,83,53,30.00,29.89,0,0,0,0.00
2014-4-25,89.8,75.9,65.8,72.1,68.2,61.5,93,78,53,29.99,29.91,0,0,0,0.00
2014-4-26,89.2,75.0,65.1,73.9,68.0,62.2,93,80,58,30.02,29.92,0,0,0,0.00
2014-4-27,86.4,75.3,66.9,74.1,69.7,63.5,94,83,65,29.95,29.83,0,0,0,0.00
2014-4-28,83.1,77.8,74.1,75.4,73.0,71.1,91,85,76,29.86,29.66,0,0,0,0.00
2014-4-29,77.4,67.3,62.1,73.9,65.5,60.0,96,94,78,29.84,29.67,0,0,0,6.91
2014-4-30,86.7,70.6,61.3,66.4,60.4,53.6,96,73,42,30.05,29.73,0,0,0,0.72
2014-5-1,78.4,63.9,55.2,55.4,50.4,47.4,76,63,41,30.12,29.97,0,0,0,0.00
2014-5-2,80.4,66.3,56.1,54.5,51.9,49.2,80,62,35,30.03,29.92,0,0,0,0.00
2014-5-3,61.7,61.0,59.5,52.6,51.9,50.7,73,72,71,30.01,29.99,0,0,0,0.00
2014-5-6,90.5,71.2,54.7,64.3,58.5,51.2,91,68,35,30.04,29.96,114,114,114,0.00
2014-5-7,85.3,70.9,57.9,70.8,63.4,54.3,92,78,59,30.11,29.99,114,114,114,0.00
2014-5-8,90.3,72.3,59.0,73.1,65.7,56.0,94,81,56,30.14,30.06,114,114,114,0.00
2014-5-9,79.2,73.9,66.0,74.1,70.1,63.5,95,88,79,30.09,30.02,114,114,114,0.60
2014-5-10,84.4,74.2,66.6,76.6,70.6,65.4,96,89,75,30.05,29.99,114,114,114,0.65
2014-5-11,88.9,77.4,71.4,77.3,72.9,69.5,95,87,67,30.09,30.01,114,114,114,0.00
2014-5-12,92.5,75.0,70.3,76.0,69.5,66.6,93,84,55,30.14,30.01,114,42,114,7.45
2014-5-13,92.8,77.6,67.8,77.0,70.3,65.1,95,80,58,30.10,30.00,0,0,0,0.18
2014-5-14,70.0,68.7,68.2,66.2,65.5,65.0,90,89,88,30.06,30.00,0,0,0,0.00
2014-5-15,71.4,57.2,52.2,55.9,47.3,45.7,86,70,46,30.18,30.03,114,24,114,7.45
2014-5-16,81.9,60.6,47.1,58.7,50.6,43.8,92,72,44,30.20,30.09,0,0,0,0.00
2014-5-17,87.6,67.6,56.1,63.8,57.6,52.1,91,73,43,30.18,30.11,0,0,0,0.47
2014-5-18,90.5,70.4,54.7,66.8,59.3,51.2,93,71,42,30.20,30.13,0,0,0,0.10
2014-5-19,91.2,71.4,55.6,67.3,59.5,52.1,94,69,41,30.20,30.13,0,0,0,0.00
2014-5-20,90.7,72.8,57.0,71.6,63.7,53.5,94,75,50,30.22,30.14,0,0,0,0.16
2014-5-21,91.9,74.6,61.5,70.4,64.3,58.3,94,73,45,30.22,30.13,0,0,0,0.10
2014-5-22,96.6,75.1,59.2,73.0,64.4,56.6,94,72,42,30.21,30.08,0,0,0,0.21
2014-5-23,95.7,77.4,63.7,75.5,66.7,59.8,92,72,47,30.16,30.05,0,0,0,0.00
2014-5-24,93.4,77.7,65.3,75.7,68.3,61.3,92,75,48,30.14,30.04,0,0,0,0.08
2014-5-25,97.3,78.3,64.6,73.6,66.0,60.4,94,70,35,30.11,30.03,0,0,0,0.02
2014-5-26,95.0,77.2,63.3,73.8,67.2,59.1,91,73,49,30.18,30.08,0,0,0,0.22
2014-5-27,91.6,78.6,68.2,75.4,69.9,64.1,91,76,56,30.13,30.00,0,0,0,0.00
2014-5-28,81.3,72.8,69.4,75.2,69.5,67.6,95,89,80,30.01,29.92,114,8,114,9.58
2014-5-29,76.3,70.3,67.6,72.2,68.5,66.1,96,94,86,29.98,29.91,0,0,0,1.40
2014-5-30,78.4,71.9,70.0,74.7,70.3,68.5,96,95,88,30.02,29.92,114,6,114,7.47
2014-5-31,84.6,75.7,70.2,75.7,71.8,68.9,97,88,72,30.03,29.97,0,0,0,0.13
2014-6-1,89.1,77.0,70.3,77.3,72.4,68.7,96,86,66,30.08,30.00,0,0,0,0.10
2014-6-2,85.6,76.5,72.1,77.3,71.9,69.6,93,86,72,30.11,30.03,0,0,0,0.02
2014-6-3,86.5,78.5,70.5,77.7,72.5,67.5,90,82,71,30.05,30.00,0,0,0,1.71
2014-6-4,93.6,77.8,66.4,75.5,69.9,64.2,95,79,51,30.02,29.91,0,0,0,0.00
2014-6-5,94.3,79.0,67.3,77.6,71.4,64.5,94,79,56,29.96,29.90,0,0,0,0.00
2014-6-6,96.8,81.5,69.1,79.7,73.1,66.3,94,77,56,30.00,29.90,0,0,0,0.00
2014-6-7,94.8,82.1,74.5,81.4,76.0,71.1,93,82,61,30.01,29.90,0,0,0,0.02
2014-6-8,97.0,83.6,75.4,80.9,75.4,72.1,93,78,52,29.99,29.88,0,0,0,0.14
2014-6-9,95.5,82.8,74.3,79.6,75.0,71.4,93,78,57,29.95,29.87,0,0,0,0.02
2014-6-10,91.0,76.9,67.8,77.7,71.8,66.0,95,85,60,29.95,29.88,0,0,0,1.76
2014-6-11,91.9,77.5,69.1,77.0,70.7,67.6,96,81,54,29.91,29.82,0,0,0,0.10
2014-6-12,73.9,73.5,72.7,70.5,70.1,69.3,90,89,87,29.88,29.87,0,0,0,0.00
2014-6-13,87.1,76.0,70.0,72.7,69.3,65.6,89,80,59,30.02,29.89,114,114,114,0.00
2014-6-14,90.7,77.7,65.7,76.7,69.9,63.0,94,78,50,30.02,29.96,114,114,114,0.00
2014-6-15,96.6,84.4,66.9,76.9,72.7,64.2,93,70,52,30.12,29.99,114,15,114,7.45
2014-6-16,97.7,81.2,70.0,77.9,72.3,66.9,94,76,47,30.19,30.08,0,0,0,0.00
2014-6-17,94.8,79.5,68.7,79.9,72.4,65.8,94,80,58,30.17,30.06,0,0,0,0.08
2014-6-18,97.2,80.7,70.7,79.4,72.7,67.6,93,78,54,30.14,30.05,0,0,0,0.00
2014-6-19,96.6,80.6,70.3,77.1,73.0,67.5,94,79,50,30.15,30.07,0,0,0,0.61
2014-6-20,89.8,78.4,70.5,80.2,73.5,68.7,95,86,67,30.11,30.00,0,0,0,0.11
2014-6-21,101.1,82.8,70.2,79.3,73.5,67.7,94,75,47,30.05,29.91,0,0,0,0.00
2014-6-22,95.4,79.7,73.2,78.3,73.0,69.5,91,81,54,30.00,29.88,0,0,0,0.02
2014-6-23,85.6,75.9,70.9,79.3,71.8,67.8,93,87,77,30.07,29.91,0,0,0,0.06
2014-6-24,97.0,81.4,71.8,79.1,73.2,65.8,94,78,47,30.10,30.03,0,0,0,0.00
2014-6-25,96.1,81.2,71.4,77.6,72.2,65.6,90,75,52,30.15,30.04,0,0,0,0.02
2014-6-26,93.9,76.7,71.4,79.1,72.5,67.6,94,88,61,30.14,30.01,0,0,0,0.34
2014-6-27,92.8,78.9,70.9,80.4,73.8,68.7,96,86,66,30.13,30.02,0,0,0,0.27
2014-6-28,96.1,80.7,71.4,82.2,75.3,69.6,96,85,63,30.16,30.05,0,0,0,0.00
2014-6-29,97.7,84.3,73.6,81.5,76.4,71.1,95,79,56,30.18,30.08,0,0,0,0.00
2014-6-30,99.5,84.9,75.9,82.0,76.6,73.2,94,78,53,30.12,29.99,0,0,0,0.00
2014-7-1,100.2,85.5,75.4,80.0,76.5,72.6,93,76,49,30.04,29.93,0,0,0,0.00
2014-7-2,97.5,84.9,75.0,81.6,75.4,69.1,91,74,55,30.03,29.94,0,0,0,0.00
2014-7-3,93.6,80.7,70.7,75.2,70.4,66.6,90,72,53,30.09,29.97,0,0,0,0.00
2014-7-4,93.0,78.9,69.1,68.7,65.7,61.6,88,67,41,30.18,30.08,0,0,0,0.00
2014-7-5,94.3,77.2,65.3,70.8,65.1,60.3,86,68,44,30.17,30.08,0,0,0,0.00
2014-7-6,98.4,80.9,69.3,73.3,68.0,64.2,86,67,43,30.09,29.99,0,0,0,0.00
2014-7-7,97.9,81.0,68.5,74.4,68.7,64.0,89,68,44,30.09,29.99,0,0,0,0.00
2014-7-8,96.6,82.1,70.0,76.2,71.5,65.9,90,72,49,30.13,30.02,0,0,0,0.00
2014-7-9,85.8,77.0,72.3,76.6,71.2,68.2,91,82,71,30.10,30.02,114,6,114,7.51
2014-7-10,91.8,76.3,71.2,77.7,72.0,67.7,93,87,59,30.13,30.03,0,0,0,0.33
2014-7-11,91.0,77.8,70.5,79.9,73.5,68.7,96,87,66,30.16,30.08,0,0,0,0.18
2014-7-12,96.6,81.4,71.6,79.1,74.0,69.9,95,80,51,30.16,30.05,0,0,0,0.00
2014-7-13,95.7,82.6,73.6,79.8,75.0,71.1,95,79,58,30.13,30.01,0,0,0,0.00
2014-7-14,89.2,79.1,72.0,80.1,74.0,69.1,93,85,71,30.08,29.95,0,0,0,0.80
2014-7-15,88.0,77.2,71.8,79.1,73.8,68.9,95,89,72,30.00,29.89,0,0,0,0.73
2014-7-16,91.6,78.3,71.2,73.5,69.1,62.1,96,76,47,29.98,29.90,0,0,0,0.00
2014-7-17,95.2,77.3,63.1,72.3,64.7,57.7,85,67,40,30.04,29.96,0,0,0,0.00
2014-7-18,82.0,74.6,68.9,77.1,71.0,64.3,95,88,80,30.04,29.94,0,0,0,0.69
2014-7-19,89.2,78.0,74.1,80.6,75.2,72.5,96,91,74,30.04,29.95,0,0,0,2.29
2014-7-20,90.5,79.3,74.5,79.8,75.2,71.7,95,87,70,30.05,29.96,0,0,0,0.30
2014-7-21,96.4,82.2,73.8,79.4,74.7,71.3,95,80,49,30.05,29.96,0,0,0,0.00
2014-7-22,89.1,77.6,70.9,79.3,73.9,67.1,94,88,72,30.07,29.97,0,0,0,1.82
2014-7-23,90.7,77.2,68.5,79.1,72.9,67.0,96,87,67,30.08,29.97,0,0,0,0.00
2014-7-24,86.2,76.4,69.4,80.3,72.8,67.0,95,89,75,30.03,29.93,0,0,0,0.87
2014-7-25,94.3,78.9,70.7,80.8,74.5,68.9,96,87,62,30.04,29.97,0,0,0,0.19
2014-7-26,97.9,82.8,73.0,82.7,76.8,71.2,96,83,60,30.09,29.99,0,0,0,0.00
2014-7-27,100.0,85.4,76.8,82.5,77.2,73.9,93,78,54,30.10,30.00,0,0,0,0.00
2014-7-28,99.1,86.4,77.7,80.2,77.1,73.7,92,75,53,30.06,29.92,0,0,0,0.00
2014-7-29,93.7,81.1,71.4,73.8,68.3,65.4,86,67,44,30.06,29.96,0,0,0,0.00
2014-7-30,91.6,77.1,66.6,66.6,62.0,58.5,78,61,37,30.08,29.98,0,0,0,0.00
2014-7-31,93.9,76.5,62.8,69.2,63.7,58.5,88,67,39,30.05,29.98,0,0,0,0.00
2014-8-1,90.9,76.9,69.4,73.3,68.4,63.3,86,76,56,30.03,29.68,0,0,0,0.02
2014-8-2,98.6,81.7,70.5,75.0,70.7,66.4,90,71,44,30.03,29.94,5,0,5,0.00
2014-8-3,90.1,79.3,74.8,77.5,72.8,68.9,90,81,63,30.03,29.94,5,0,5,0.00
2014-8-4,93.6,80.9,72.0,76.6,73.0,68.5,96,78,55,30.05,29.94,5,0,6,0.00
2014-8-5,92.5,80.6,72.1,82.4,74.6,69.6,93,83,62,30.09,29.99,3,0,3,0.73
2014-8-6,97.5,81.2,72.3,81.4,74.2,70.4,96,81,54,30.08,29.98,7,0,7,0.00
2014-8-7,97.7,81.6,73.8,81.3,75.3,71.6,95,82,56,30.05,29.94,8,0,8,0.00
2014-8-8,95.5,84.2,75.6,81.3,77.2,73.3,95,81,62,30.04,29.94,7,0,7,0.00
2014-8-9,97.0,80.1,73.9,81.4,75.1,70.5,96,86,57,30.07,29.97,14,0,14,0.27
2014-8-10,97.0,81.4,72.7,80.1,75.0,71.5,97,83,54,30.08,29.96,7,0,7,0.00
2014-8-11,98.8,81.1,72.3,77.3,73.3,70.1,94,79,49,30.05,29.95,10,0,10,0.24
2014-8-12,96.6,80.8,71.4,79.1,74.2,69.6,96,82,54,29.99,29.90,9,0,9,0.00
2014-8-13,94.3,81.4,73.2,78.0,73.8,66.9,94,79,56,30.02,29.93,6,0,6,0.00
2014-8-14,94.1,79.8,68.2,72.7,67.6,61.6,86,68,48,30.06,29.96,6,0,6,0.00
2014-8-15,99.1,83.9,67.6,72.7,69.0,64.7,93,64,37,30.05,29.95,7,0,7,0.00
2014-8-16,97.2,81.7,69.3,79.7,72.9,65.7,91,76,54,30.06,29.98,7,0,7,0.00
2014-8-17,85.8,77.7,74.1,79.3,74.7,71.5,95,90,78,30.10,30.01,9,0,9,0.62
2014-8-18,95.4,83.1,73.0,80.3,75.7,71.8,97,80,56,30.05,29.95,9,1,9,0.00
2014-8-19,98.4,85.3,77.7,79.7,76.3,71.2,93,76,51,30.04,29.94,9,1,9,0.00
2014-8-20,97.5,83.0,73.2,81.1,74.8,70.0,94,77,54,30.11,29.97,6,0,6,0.00
2014-8-21,100.0,84.5,73.6,80.7,75.5,71.1,95,76,48,30.16,30.07,7,0,7,0.00
2014-8-22,101.5,86.1,76.1,80.2,76.1,73.4,92,74,49,30.12,30.01,7,0,7,0.00
2014-8-23,98.8,86.8,77.5,80.1,76.1,73.6,89,72,50,30.04,29.91,6,0,6,0.00
2014-8-24,101.3,86.9,75.9,77.9,74.3,72.0,89,69,41,29.94,29.84,10,1,10,0.00
2014-8-25,93.0,83.7,78.4,76.4,73.2,68.7,86,72,54,29.98,29.89,8,1,8,0.00
2014-8-26,95.4,82.5,72.3,73.6,69.7,64.3,83,66,47,30.04,29.94,8,0,8,0.00
2014-8-27,96.6,82.2,71.6,76.7,72.4,68.2,91,74,51,30.07,29.98,7,0,7,0.00
2014-8-28,93.4,78.6,72.3,77.1,72.1,69.1,94,81,57,30.04,29.93,6,0,6,0.00
2014-8-29,90.7,75.2,70.7,77.6,71.8,68.2,95,89,65,30.04,29.97,3,0,3,0.04
2014-8-30,94.1,81.5,75.2,81.3,76.6,73.1,96,86,63,30.09,30.02,6,0,6,0.04
2014-8-31,97.5,82.4,73.6,80.7,75.8,71.7,96,82,53,30.13,30.06,5,0,5,0.00
2014-9-1,97.0,83.3,73.2,79.5,75.5,70.8,95,79,56,30.11,30.03,6,0,6,0.00
2014-9-2,90.9,79.6,74.8,79.3,75.4,72.0,95,87,65,30.10,29.98,7,0,7,1.06
2014-9-3,94.8,80.6,72.1,76.8,73.2,70.3,95,80,52,30.08,29.98,7,0,7,0.00
2014-9-4,89.8,78.0,72.3,78.5,74.5,70.1,95,89,68,30.11,30.02,7,0,7,0.49
2014-9-5,94.3,80.3,72.7,79.6,75.0,71.4,97,85,60,30.16,30.03,5,0,5,0.00
2014-9-6,97.3,81.9,71.8,78.9,73.9,69.9,95,78,51,30.07,29.94,6,0,6,0.00
2014-9-7,93.9,80.0,73.6,78.4,74.2,71.3,94,83,60,30.01,29.91,5,0,5,0.00
2014-9-8,94.1,80.5,72.1,79.1,74.4,69.9,94,82,58,30.03,29.96,7,0,7,0.00
2014-9-9,93.0,81.3,75.2,80.2,75.9,72.7,95,84,61,30.07,29.96,3,0,3,0.00
2014-9-10,95.5,81.8,72.3,79.8,75.0,70.2,96,81,59,30.01,29.94,7,0,7,0.00
2014-9-11,93.6,77.6,73.6,80.4,73.9,71.6,96,88,65,30.03,29.95,4,0,4,0.08
2014-9-12,95.7,81.4,73.8,80.1,75.5,72.1,96,83,57,30.05,29.96,5,0,5,0.00
2014-9-13,92.3,80.3,73.9,77.9,74.2,69.7,96,83,59,30.11,29.99,10,1,10,0.00
2014-9-14,97.7,80.0,69.6,77.7,72.2,66.7,91,78,49,30.13,30.04,7,0,7,0.00
2014-9-15,90.9,81.0,73.2,79.1,75.1,71.1,95,83,65,30.13,30.06,7,0,7,0.00
2014-9-16,91.4,78.4,71.4,80.2,73.8,70.2,96,86,62,30.09,29.97,6,0,7,0.92
2014-9-17,93.9,78.6,69.4,78.8,72.7,68.2,97,84,60,29.98,29.89,6,0,6,0.00
2014-9-18,91.0,76.5,70.3,77.1,71.5,67.8,96,86,63,29.96,29.90,6,0,6,0.34
2014-9-19,90.7,77.3,70.3,76.0,71.3,67.8,97,83,55,30.01,29.91,6,0,6,0.02
2014-9-20,86.5,76.1,68.5,74.0,68.7,64.8,93,79,61,30.04,29.95,9,0,9,0.00
2014-9-21,93.4,76.8,66.0,73.8,68.3,63.6,95,77,50,30.06,29.98,6,0,6,0.00
2014-9-22,89.4,74.7,64.8,76.7,67.4,56.8,95,79,58,30.06,29.98,9,0,9,0.27
2014-9-23,86.7,71.7,60.1,65.9,58.6,54.3,82,66,36,30.11,30.04,9,1,9,0.00
2014-9-24,85.8,72.7,64.8,68.3,63.4,59.5,89,74,50,30.20,30.09,9,1,9,0.00
2014-9-25,84.7,71.1,62.6,67.2,62.9,58.7,91,77,53,30.20,30.08,7,1,7,0.00
2014-9-26,83.8,71.2,63.1,67.1,62.8,59.3,91,76,56,30.12,30.02,6,1,6,0.00
2014-9-27,82.0,72.1,62.2,72.6,66.9,59.2,94,84,72,30.07,29.98,8,1,8,0.00
2014-9-28,80.6,74.6,71.1,76.5,71.5,68.4,96,90,83,30.04,29.94,5,0,7,0.20
2014-9-29,86.4,76.5,71.8,76.0,72.4,69.3,93,87,67,29.94,29.84,8,0,8,0.02
2014-9-30,84.7,74.0,67.8,72.9,69.3,65.1,96,86,66,29.94,29.86,5,0,5,0.00
2014-10-1,88.5,70.1,63.5,75.8,66.5,61.8,96,89,64,29.98,29.90,3,0,3,0.00
2014-10-2,83.1,78.4,75.9,81.6,76.7,74.4,97,95,90,30.04,29.94,3,0,3,1.74
2014-10-3,82.8,75.3,67.8,77.2,71.9,64.1,97,90,71,30.04,29.91,12,1,12,0.12
2014-10-4,73.2,62.4,48.4,64.1,50.3,42.9,94,68,35,30.09,30.01,18,2,18,0.00
2014-10-5,81.9,60.1,44.4,54.2,48.4,41.7,92,70,35,30.09,30.00,6,0,6,0.00
2014-10-6,88.9,68.2,53.4,66.6,58.8,50.1,93,74,45,30.06,29.97,5,0,5,0.00
2014-10-7,92.5,73.9,60.6,74.3,65.7,57.7,95,78,49,30.09,29.99,7,0,7,0.00
2014-10-8,92.1,75.1,63.5,75.1,67.6,61.2,96,80,48,30.14,30.05,4,0,4,0.00
2014-10-9,93.0,75.9,65.3,76.8,68.9,63.2,96,81,53,30.12,30.02,5,0,5,0.00
2014-10-10,86.4,74.5,66.2,79.0,70.7,63.9,96,88,71,30.08,30.00,3,0,3,0.69
2014-10-11,86.2,73.4,66.0,78.3,70.1,64.2,97,90,74,30.07,29.97,6,0,6,0.06
2014-10-12,89.8,74.7,64.2,76.5,69.2,62.8,97,84,59,30.05,29.96,3,0,3,0.00
2014-10-13,86.4,77.0,68.5,77.7,72.9,66.3,96,88,76,30.00,29.77,12,1,12,0.64
2014-10-14,79.0,67.4,56.8,72.2,59.8,50.5,96,78,50,29.99,29.75,8,1,8,0.42
2014-10-15,80.4,61.7,48.7,55.0,49.4,46.3,92,68,35,30.03,29.93,8,0,8,0.00
2014-10-16,83.7,54.7,47.3,54.6,48.2,44.2,91,81,34,30.02,29.94,2,0,2,0.00
2014-10-17,88.3,64.9,48.2,64.5,54.8,45.5,92,73,42,30.04,29.93,6,0,6,0.00
2014-10-18,87.6,70.7,56.5,69.3,61.6,53.0,94,75,50,30.04,29.94,9,0,9,0.00
2014-10-19,81.0,64.2,52.2,54.6,51.8,47.8,85,66,38,30.14,30.04,6,0,6,0.00
2014-10-20,85.6,61.9,47.5,59.5,51.1,44.5,92,71,36,30.08,29.98,4,0,4,0.00
2014-10-21,83.5,63.3,49.6,57.6,52.5,46.5,91,71,39,30.06,29.96,6,0,6,0.00
2014-10-22,79.9,63.9,53.4,56.8,52.5,46.5,90,69,41,30.11,30.01,8,1,8,0.00
2014-10-23,78.6,59.7,46.0,51.5,47.1,42.1,88,66,33,30.13,30.02,6,0,6,0.00
2014-10-24,80.2,61.8,49.3,53.5,47.9,44.4,86,64,32,30.10,30.00,6,0,6,0.00
2014-10-25,82.4,62.5,45.5,58.5,51.4,41.3,85,69,43,30.14,30.04,10,1,10,0.00
2014-10-26,88.9,68.0,54.1,68.2,59.4,50.8,93,76,48,30.09,29.98,5,0,5,0.00
2014-10-27,84.9,67.9,57.0,70.3,61.7,54.1,94,82,58,30.08,30.02,6,0,6,0.00
2014-10-28,82.2,69.3,56.8,69.3,62.3,54.4,95,80,59,30.14,30.06,4,0,4,0.00
2014-10-29,87.6,71.1,62.1,71.6,64.6,59.5,94,81,53,30.11,29.99,8,0,8,0.00
2014-10-30,74.8,62.9,47.3,56.0,48.3,41.6,86,62,34,30.11,30.00,9,1,11,0.00
2014-10-31,76.8,59.2,42.6,53.1,45.7,38.6,89,64,37,30.15,29.92,18,2,18,0.00
2014-11-1,61.5,49.9,39.4,37.8,28.2,24.3,62,45,25,30.36,30.15,16,4,16,0.00
2014-11-2,67.8,48.5,34.7,38.9,33.7,29.6,84,60,27,30.43,30.31,8,0,8,0.00
2014-11-3,73.6,52.3,35.4,52.4,42.3,30.7,87,71,45,30.42,30.31,6,0,6,0.00
2014-11-4,78.6,59.7,44.1,63.5,52.8,40.7,91,79,59,30.31,30.20,6,0,6,0.00
2014-11-5,81.3,66.0,55.9,68.1,60.7,53.2,95,84,61,30.23,30.14,4,0,4,0.00
2014-11-6,79.5,66.6,57.7,70.5,61.0,45.4,95,83,64,30.17,30.06,13,1,13,0.07
2014-11-7,66.9,53.8,43.9,45.4,40.9,38.4,82,63,43,30.18,30.02,10,1,10,0.00
2014-11-8,66.7,52.1,41.7,46.3,42.2,37.5,86,71,46,30.06,29.95,5,0,5,0.00
2014-11-9,74.3,53.6,42.6,52.1,44.9,38.7,88,74,44,30.06,29.96,6,0,6,0.00
2014-11-10,77.9,53.7,37.0,57.5,45.7,34.1,93,77,47,30.08,29.97,6,0,6,0.00
2014-11-11,79.9,59.5,43.3,65.5,53.7,40.3,95,82,60,30.07,29.96,6,0,6,0.00
2014-11-12,67.8,59.3,48.4,60.5,54.3,43.1,91,84,72,30.16,30.01,9,1,9,0.00
2014-11-13,48.4,41.9,38.5,43.1,36.1,27.2,92,80,63,30.27,30.14,15,3,15,0.36
2014-11-14,51.6,39.6,31.6,27.6,23.4,21.6,67,54,32,30.33,30.23,10,1,10,0.00
2014-11-15,64.0,42.8,29.1,38.5,29.1,21.4,80,60,36,30.35,30.19,5,0,5,0.00
2014-11-16,73.9,59.6,39.6,67.6,54.7,33.9,94,84,71,30.19,29.83,6,0,6,0.00
2014-11-17,71.4,50.1,34.9,68.8,43.2,24.6,94,78,59,30.30,29.77,16,4,16,0.39
2014-11-18,48.7,34.6,24.6,25.5,21.6,18.4,82,62,30,30.47,30.30,13,2,13,0.00
2014-11-19,32.4,26.5,23.0,25.9,21.2,18.5,84,80,75,30.44,30.32,0,0,0,0.00
2014-11-20,69.4,46.7,30.4,51.0,38.2,25.6,90,74,51,30.32,30.21,4,0,4,0.00
2014-11-21,70.9,52.6,36.0,51.8,42.8,32.7,93,72,46,30.36,30.24,7,0,7,0.00
2014-11-22,70.3,61.3,44.4,58.9,55.0,41.6,94,81,61,30.29,29.93,7,1,7,0.00
2014-11-23,72.1,65.9,60.8,71.2,63.7,58.8,97,93,82,29.93,29.66,9,2,9,0.22
2014-11-24,80.6,69.4,56.8,68.0,59.2,43.0,94,71,52,30.06,29.76,10,2,10,0.00
2014-11-25,61.9,54.3,48.4,43.0,37.3,31.5,64,53,36,30.17,30.03,16,2,16,0.00
2014-11-26,68.7,50.3,33.4,44.7,34.1,26.4,77,56,31,30.27,30.15,10,1,10,0.00
2014-11-27,60.4,50.2,39.4,42.7,34.6,30.7,82,57,38,30.45,30.26,60,2,60,0.00
2014-11-28,64.2,43.9,33.6,35.5,31.8,28.1,83,65,34,30.45,30.26,6,0,6,0.00
2014-11-29,75.0,51.4,33.1,59.1,44.4,28.9,92,79,57,30.29,30.20,6,0,6,0.00
2014-11-30,79.3,58.6,43.5,64.6,52.5,40.5,94,82,59,30.30,30.20,6,0,6,0.00
2014-12-1,79.0,61.8,51.1,63.9,55.7,47.9,96,82,56,30.38,30.27,6,0,6,0.00
2014-12-2,79.3,60.1,47.1,60.9,53.1,44.7,95,80,50,30.32,30.19,4,0,4,0.00
2014-12-3,77.0,63.1,52.2,65.1,57.8,49.5,95,84,65,30.26,30.17,5,0,5,0.00
2014-12-4,79.9,64.0,52.5,68.8,59.7,50.2,95,86,68,30.26,30.18,3,0,3,0.00
2014-12-5,79.9,65.8,54.3,69.7,62.0,52.3,97,88,70,30.27,30.19,5,0,5,0.00
2014-12-6,79.3,67.6,56.5,70.3,62.7,49.3,96,85,70,30.27,30.14,12,1,12,0.00
2014-12-7,64.9,53.5,44.4,49.3,45.2,40.2,85,74,55,30.32,30.19,11,2,11,0.00
2014-12-8,67.3,53.1,42.1,52.6,45.9,38.5,89,78,56,30.26,30.17,7,0,7,0.00
2014-12-9,67.3,51.2,37.6,47.5,40.0,34.6,94,69,38,30.27,30.15,13,1,13,0.00
2014-12-10,59.7,45.3,35.2,39.1,35.1,29.5,85,69,44,30.29,30.17,14,1,14,0.00
2014-12-11,38.8,37.8,36.3,34.1,33.0,31.3,83,83,82,30.21,30.18,1,0,1,0.00
2014-12-12,63.1,51.5,43.2,45.2,40.9,36.9,79,68,52,30.32,30.28,3,0,3,0.00
2014-12-13,68.9,51.7,40.8,48.9,41.5,35.9,84,70,47,30.30,30.19,10,1,10,0.00
2014-12-14,69.4,50.4,37.9,52.8,43.3,34.6,91,78,54,30.22,30.08,10,0,10,0.00
2014-12-15,73.8,57.0,38.5,63.5,51.9,35.5,94,84,64,30.11,30.02,6,0,6,0.00
2014-12-16,70.3,60.5,43.5,63.6,48.1,35.8,92,66,36,30.27,30.04,10,1,10,0.02
2014-12-17,61.9,46.6,34.9,44.3,38.1,30.6,89,73,52,30.30,30.17,7,0,7,0.00
2014-12-18,67.3,51.9,39.4,48.6,43.0,36.0,91,73,50,30.23,30.10,6,0,6,0.00
2014-12-19,54.1,50.0,46.0,48.5,46.1,43.2,95,87,75,30.24,30.07,14,1,14,0.92
2014-12-20,50.7,48.8,46.0,48.6,46.9,44.7,96,93,91,30.16,30.07,10,1,10,0.23
2014-12-21,57.7,53.9,50.0,54.5,51.5,47.6,94,92,88,30.14,29.97,7,0,7,0.00
2014-12-22,70.9,63.2,55.6,68.4,61.2,54.0,97,94,89,29.97,29.76,6,0,6,0.02
2014-12-23,71.1,68.1,64.2,70.1,67.0,63.1,97,96,95,29.79,29.60,7,0,8,0.53
2014-12-24,68.9,55.1,42.4,67.4,50.4,36.6,97,85,70,30.11,29.58,8,1,8,0.36
2014-12-25,61.9,43.6,32.5,45.6,37.2,30.2,93,80,52,30.29,30.10,3,0,3,0.00
2014-12-26,68.4,51.0,35.4,56.8,45.3,33.0,95,82,65,30.29,30.17,5,0,5,0.00
2014-12-27,60.8,58.1,54.0,59.9,55.6,47.7,97,92,74,30.23,30.08,6,0,6,2.21
2014-12-28,74.1,66.9,58.1,71.7,65.6,56.4,98,96,91,30.13,30.00,6,0,6,0.18
2014-12-29,65.3,58.5,52.3,60.5,56.2,50.1,96,92,82,30.16,30.01,5,0,5,0.02
2014-12-30,54.7,50.0,39.4,53.5,46.9,36.7,96,89,82,30.40,30.14,11,1,11,0.00
2014-12-31,56.8,44.7,36.5,47.5,40.1,34.3,92,84,70,30.43,30.31,11,1,11,0.00
2015-1-1,58.8,49.4,41.5,51.4,45.5,39.4,94,87,75,30.36,30.20,5,0,5,0.00
2015-1-2,68.5,61.2,51.8,65.5,57.8,47.3,97,89,81,30.22,30.11,5,0,5,0.10